createdAt,value
2018-12-12T00:01:23.992Z,16.930000000000007
2018-12-12T00:04:46.171Z,16.930000000000007
2018-12-12T00:08:08.349Z,16.870000000000005
2018-12-12T00:11:30.464Z,16.89
2018-12-12T00:14:52.702Z,16.989999999999995
2018-12-12T00:18:14.903Z,16.959999999999994
2018-12-12T00:21:37.046Z,16.900000000000006
2018-12-12T00:24:59.149Z,16.909999999999997
2018-12-12T00:28:21.314Z,16.83
2018-12-12T00:31:43.521Z,16.870000000000005
2018-12-12T00:35:05.761Z,16.900000000000006
2018-12-12T00:38:27.836Z,16.89
2018-12-12T00:41:50.003Z,16.870000000000005
2018-12-12T00:45:12.179Z,16.89
2018-12-12T00:48:34.363Z,16.840000000000003
2018-12-12T00:51:56.609Z,16.810000000000002
2018-12-12T00:55:18.743Z,16.89
2018-12-12T00:58:40.874Z,16.83
2018-12-12T01:02:03.056Z,16.799999999999997
2018-12-12T01:05:25.378Z,16.939999999999998
2018-12-12T01:08:47.467Z,16.83
2018-12-12T01:12:09.641Z,16.86
2018-12-12T01:15:31.823Z,16.769999999999996
2018-12-12T01:18:53.990Z,16.840000000000003
2018-12-12T01:22:16.196Z,16.89
2018-12-12T01:25:38.332Z,16.89
2018-12-12T01:29:00.435Z,16.840000000000003
2018-12-12T01:32:22.706Z,16.86
2018-12-12T01:35:44.875Z,16.870000000000005
2018-12-12T01:39:07.044Z,16.83
2018-12-12T01:42:29.228Z,16.760000000000005
2018-12-12T01:45:51.314Z,16.769999999999996
2018-12-12T01:49:13.571Z,16.760000000000005
2018-12-12T01:52:35.710Z,16.769999999999996
2018-12-12T01:55:57.910Z,16.769999999999996
2018-12-12T01:59:20.097Z,16.840000000000003
2018-12-12T02:02:42.281Z,16.790000000000006
2018-12-12T02:06:04.419Z,16.83
2018-12-12T02:09:26.581Z,16.790000000000006
2018-12-12T02:12:48.787Z,16.769999999999996
2018-12-12T02:16:10.936Z,16.790000000000006
2018-12-12T02:19:33.129Z,16.760000000000005
2018-12-12T02:22:55.312Z,16.769999999999996
2018-12-12T02:26:17.476Z,16.709999999999994
2018-12-12T02:29:39.602Z,16.760000000000005
2018-12-12T02:33:01.732Z,16.700000000000003
2018-12-12T02:36:24.000Z,16.739999999999995
2018-12-12T02:39:46.548Z,16.799999999999997
2018-12-12T02:43:08.339Z,16.760000000000005
2018-12-12T02:46:30.533Z,16.83
2018-12-12T02:49:52.691Z,16.709999999999994
2018-12-12T02:50:20.070Z,16.709999999999994
2018-12-12T02:53:14.861Z,16.689999999999998
2018-12-12T02:56:37.031Z,16.760000000000005
2018-12-12T02:59:59.120Z,16.739999999999995
2018-12-12T03:03:21.307Z,16.810000000000002
2018-12-12T03:06:43.545Z,16.730000000000004
2018-12-12T03:10:05.718Z,16.730000000000004
2018-12-12T03:13:27.898Z,16.620000000000005
2018-12-12T03:16:50.104Z,16.659999999999997
2018-12-12T03:20:12.250Z,16.620000000000005
2018-12-12T03:23:34.429Z,16.67
2018-12-12T03:26:56.518Z,16.700000000000003
2018-12-12T03:30:18.794Z,16.689999999999998
2018-12-12T03:33:40.936Z,16.659999999999997
2018-12-12T03:37:03.033Z,16.67
2018-12-12T03:40:25.392Z,16.659999999999997
2018-12-12T03:43:47.471Z,16.700000000000003
2018-12-12T03:47:09.554Z,16.769999999999996
2018-12-12T03:50:31.822Z,16.67
2018-12-12T03:53:53.926Z,16.659999999999997
2018-12-12T03:57:16.208Z,16.629999999999995
2018-12-12T04:00:38.332Z,16.599999999999994
2018-12-12T04:04:00.423Z,16.659999999999997
2018-12-12T04:07:22.667Z,16.560000000000002
2018-12-12T04:10:44.767Z,16.560000000000002
2018-12-12T04:14:07.010Z,16.689999999999998
2018-12-12T04:17:29.178Z,16.64
2018-12-12T04:20:51.351Z,16.599999999999994
2018-12-12T04:24:13.523Z,16.620000000000005
2018-12-12T04:27:35.627Z,16.629999999999995
2018-12-12T04:30:57.876Z,16.64
2018-12-12T04:34:19.993Z,16.629999999999995
2018-12-12T04:37:42.291Z,16.599999999999994
2018-12-12T04:41:04.416Z,16.53
2018-12-12T04:44:26.576Z,16.560000000000002
2018-12-12T04:47:50.322Z,16.67
2018-12-12T04:51:10.844Z,16.590000000000003
2018-12-12T04:54:33.012Z,16.560000000000002
2018-12-12T04:57:55.181Z,16.599999999999994
2018-12-12T05:01:17.359Z,16.569999999999993
2018-12-12T05:04:39.527Z,16.430000000000007
2018-12-12T05:08:01.712Z,16.53
2018-12-12T05:11:23.883Z,16.590000000000003
2018-12-12T05:14:46.129Z,16.599999999999994
2018-12-12T05:18:08.253Z,16.53
2018-12-12T05:21:30.414Z,16.53
2018-12-12T05:24:52.673Z,16.569999999999993
2018-12-12T05:28:15.598Z,16.5
2018-12-12T05:31:37.001Z,16.549999999999997
2018-12-12T05:34:59.122Z,16.560000000000002
2018-12-12T05:38:21.304Z,16.489999999999995
2018-12-12T05:41:43.470Z,16.5
2018-12-12T05:45:05.723Z,16.480000000000004
2018-12-12T05:48:27.873Z,16.519999999999996
2018-12-12T05:51:49.985Z,16.519999999999996
2018-12-12T05:55:12.216Z,16.450000000000003
2018-12-12T05:58:34.408Z,16.42
2018-12-12T06:01:56.622Z,16.5
2018-12-12T06:05:18.748Z,16.459999999999994
2018-12-12T06:08:40.841Z,16.480000000000004
2018-12-12T06:12:03.090Z,16.519999999999996
2018-12-12T06:15:25.271Z,16.459999999999994
2018-12-12T06:18:47.440Z,16.39
2018-12-12T06:22:09.612Z,16.5
2018-12-12T06:25:31.784Z,16.409999999999997
2018-12-12T06:28:53.967Z,16.379999999999995
2018-12-12T06:32:16.133Z,16.450000000000003
2018-12-12T06:35:38.229Z,16.430000000000007
2018-12-12T06:39:00.488Z,16.39
2018-12-12T06:42:22.685Z,16.39
2018-12-12T06:45:44.839Z,16.319999999999993
2018-12-12T06:49:07.017Z,16.379999999999995
2018-12-12T06:52:29.099Z,16.39
2018-12-12T06:55:51.341Z,16.39
2018-12-12T06:59:13.459Z,16.319999999999993
2018-12-12T07:02:35.702Z,16.260000000000005
2018-12-12T07:05:57.858Z,16.39
2018-12-12T07:09:20.036Z,16.629999999999995
2018-12-12T07:12:42.236Z,17.22
2018-12-12T07:16:05.182Z,17.450000000000003
2018-12-12T07:19:26.510Z,17.650000000000006
2018-12-12T07:22:48.756Z,17.75
2018-12-12T07:26:10.841Z,17.799999999999997
2018-12-12T07:29:33.068Z,17.89
2018-12-12T07:32:55.260Z,17.930000000000007
2018-12-12T07:36:17.344Z,17.92
2018-12-12T07:39:39.555Z,18.099999999999994
2018-12-12T07:43:01.823Z,18.090000000000003
2018-12-12T07:46:23.943Z,18.010000000000005
2018-12-12T07:49:46.041Z,18.090000000000003
2018-12-12T07:53:08.217Z,18.03
2018-12-12T07:56:30.521Z,18.120000000000005
2018-12-12T07:59:52.561Z,18.159999999999997
2018-12-12T08:03:14.901Z,18.25
2018-12-12T08:06:36.907Z,18.33
2018-12-12T08:09:59.159Z,18.299999999999997
2018-12-12T08:13:21.339Z,18.28
2018-12-12T08:16:43.500Z,18.33
2018-12-12T08:20:05.688Z,18.370000000000005
2018-12-12T08:26:50.024Z,18.450000000000003
2018-12-12T08:30:12.177Z,18.480000000000004
2018-12-12T08:33:34.531Z,18.58
2018-12-12T08:36:56.569Z,18.61
2018-12-12T08:40:18.734Z,18.61
2018-12-12T08:47:03.103Z,18.680000000000007
2018-12-12T08:50:25.291Z,18.730000000000004
2018-12-12T08:53:47.444Z,18.689999999999998
2018-12-12T08:57:09.550Z,18.75
2018-12-12T09:00:31.792Z,18.689999999999998
2018-12-12T09:03:53.974Z,18.730000000000004
2018-12-12T09:07:16.141Z,18.819999999999993
2018-12-12T09:10:38.237Z,18.83
2018-12-12T09:14:00.411Z,18.810000000000002
2018-12-12T09:17:22.713Z,18.86
2018-12-12T09:20:44.858Z,18.92
2018-12-12T09:24:06.950Z,18.89
2018-12-12T09:27:29.171Z,18.89
2018-12-12T09:30:51.688Z,19
2018-12-12T09:34:13.541Z,18.989999999999995
2018-12-12T09:37:35.688Z,19
2018-12-12T09:40:57.888Z,19
2018-12-12T09:44:20.147Z,19.019999999999996
2018-12-12T09:47:42.233Z,19.129999999999995
2018-12-12T09:51:04.404Z,19.090000000000003
2018-12-12T09:54:26.612Z,19.060000000000002
2018-12-12T09:57:48.813Z,19.040000000000006
2018-12-12T10:01:10.942Z,19.120000000000005
2018-12-12T10:04:33.233Z,19.060000000000002
2018-12-12T10:07:59.062Z,19.03
2018-12-12T10:11:17.445Z,19.159999999999997
2018-12-12T10:14:39.738Z,19.340000000000003
2018-12-12T10:18:01.941Z,19.39
2018-12-12T10:21:23.959Z,19.209999999999994
2018-12-12T10:24:46.234Z,19.260000000000005
2018-12-12T10:28:08.312Z,19.260000000000005
2018-12-12T10:31:30.503Z,19.17
2018-12-12T10:34:52.729Z,19.209999999999994
2018-12-12T10:38:14.918Z,19.200000000000003
2018-12-12T10:41:37.024Z,19.230000000000004
2018-12-12T10:44:59.354Z,19.299999999999997
2018-12-12T10:48:21.302Z,17.680000000000007
2018-12-12T10:51:43.486Z,18.83
2018-12-12T10:55:05.835Z,18.03
2018-12-12T10:58:29.432Z,18.230000000000004
2018-12-12T11:01:50.100Z,18.61
2018-12-12T11:05:12.256Z,18.810000000000002
2018-12-12T11:08:34.492Z,18.909999999999997
2018-12-12T11:11:56.551Z,18.989999999999995
2018-12-12T11:15:18.831Z,19.019999999999996
2018-12-12T11:18:40.886Z,19.040000000000006
2018-12-12T11:22:03.155Z,18.950000000000003
2018-12-12T11:25:25.307Z,19.03
2018-12-12T11:28:47.619Z,19.060000000000002
2018-12-12T11:32:09.604Z,19.159999999999997
2018-12-12T11:35:31.971Z,19.040000000000006
2018-12-12T11:38:53.959Z,19.159999999999997
2018-12-12T11:42:16.140Z,19.129999999999995
2018-12-12T11:45:38.373Z,19.099999999999994
2018-12-12T11:49:00.654Z,19.14
2018-12-12T11:52:22.667Z,19.14
2018-12-12T11:59:07.007Z,19.129999999999995
2018-12-12T12:02:29.202Z,19.209999999999994
2018-12-12T12:05:51.555Z,19.129999999999995
2018-12-12T12:09:13.638Z,19.129999999999995
2018-12-12T12:15:58.047Z,19.159999999999997
2018-12-12T12:19:20.154Z,19.129999999999995
2018-12-12T12:22:42.349Z,19.200000000000003
2018-12-12T12:26:04.466Z,19.17
2018-12-12T12:29:26.666Z,19.189999999999998
2018-12-12T12:32:48.957Z,19.209999999999994
2018-12-12T12:36:11.172Z,19.189999999999998
2018-12-12T12:39:33.115Z,19.189999999999998
2018-12-12T12:42:55.425Z,19.39
2018-12-12T12:46:17.567Z,18.299999999999997
2018-12-12T12:49:39.766Z,18.069999999999993
2018-12-12T12:53:05.118Z,17.760000000000005
2018-12-12T12:56:24.132Z,18.120000000000005
2018-12-12T12:59:46.306Z,18.370000000000005
2018-12-12T13:03:08.688Z,18.560000000000002
2018-12-12T13:06:30.590Z,18.75
2018-12-12T13:09:52.824Z,18.78
2018-12-12T13:13:14.983Z,18.909999999999997
2018-12-12T13:16:37.140Z,19
2018-12-12T13:19:59.342Z,19.040000000000006
2018-12-12T13:23:21.395Z,19.069999999999993
2018-12-12T13:26:43.677Z,19
2018-12-12T13:30:05.847Z,19.129999999999995
2018-12-12T13:30:45.415Z,19.129999999999995
2018-12-12T13:33:28.029Z,19.39
2018-12-12T13:36:50.170Z,19.040000000000006
2018-12-12T13:40:12.373Z,19.040000000000006
2018-12-12T13:43:34.454Z,19.129999999999995
2018-12-12T13:46:56.817Z,19.159999999999997
2018-12-12T13:50:18.890Z,19.159999999999997
2018-12-12T13:53:41.085Z,19.209999999999994
2018-12-12T13:57:03.247Z,19.17
2018-12-12T14:00:25.419Z,19.310000000000002
2018-12-12T14:03:47.637Z,19.269999999999996
2018-12-12T14:07:09.814Z,19.290000000000006
2018-12-12T14:10:31.981Z,19.409999999999997
2018-12-12T14:13:54.123Z,19.5
2018-12-12T14:17:16.273Z,19.549999999999997
2018-12-12T14:20:38.504Z,19.459999999999994
2018-12-12T14:24:00.644Z,19.47
2018-12-12T14:27:22.763Z,19.569999999999993
2018-12-12T14:30:44.926Z,19.58
2018-12-12T14:34:07.105Z,19.540000000000006
2018-12-12T14:37:29.387Z,19.5
2018-12-12T14:40:51.469Z,19.5
2018-12-12T14:44:13.631Z,19.510000000000005
2018-12-12T14:47:35.812Z,19.400000000000006
2018-12-12T14:50:57.995Z,19.430000000000007
2018-12-12T14:54:20.232Z,19.39
2018-12-12T14:57:42.388Z,19.39
2018-12-12T15:01:04.588Z,19.400000000000006
2018-12-12T15:04:26.779Z,19.370000000000005
2018-12-12T15:07:49.115Z,19.239999999999995
2018-12-12T15:11:11.102Z,19.209999999999994
2018-12-12T15:14:33.220Z,19.200000000000003
2018-12-12T15:21:17.632Z,19.209999999999994
2018-12-12T15:24:39.784Z,19.290000000000006
2018-12-12T15:28:05.221Z,19.33
2018-12-12T15:31:24.189Z,19.340000000000003
2018-12-12T15:34:46.361Z,19.290000000000006
2018-12-12T15:38:08.529Z,19.370000000000005
2018-12-12T15:41:30.756Z,19.39
2018-12-12T15:44:52.873Z,19.400000000000006
2018-12-12T15:48:15.159Z,19.47
2018-12-12T15:51:37.133Z,19.439999999999998
2018-12-12T15:54:59.339Z,19.459999999999994
2018-12-12T15:58:21.596Z,19.569999999999993
2018-12-12T16:01:43.748Z,19.569999999999993
2018-12-12T16:05:06.178Z,19.549999999999997
2018-12-12T16:08:28.105Z,19.459999999999994
2018-12-12T16:11:50.301Z,19.5
2018-12-12T16:15:12.391Z,19.650000000000006
2018-12-12T16:18:34.609Z,19.769999999999996
2018-12-12T16:21:56.769Z,19.620000000000005
2018-12-12T16:25:18.921Z,19.67
2018-12-12T16:28:41.270Z,19.620000000000005
2018-12-12T16:32:03.329Z,19.849999999999994
2018-12-12T16:35:25.519Z,19.950000000000003
2018-12-12T16:38:47.694Z,19.739999999999995
2018-12-12T16:42:09.862Z,19.769999999999996
2018-12-12T16:45:32.032Z,19.78
2018-12-12T16:48:54.222Z,19.769999999999996
2018-12-12T16:52:16.319Z,19.769999999999996
2018-12-12T16:55:38.506Z,19.790000000000006
2018-12-12T16:59:00.748Z,19.78
2018-12-12T17:02:22.834Z,19.790000000000006
2018-12-12T17:05:45.102Z,19.83
2018-12-12T17:09:07.265Z,19.790000000000006
2018-12-12T17:12:29.360Z,19.86
2018-12-12T17:15:51.527Z,19.92
2018-12-12T17:19:13.783Z,19.879999999999995
2018-12-12T17:22:35.909Z,19.980000000000004
2018-12-12T17:25:58.118Z,20.260000000000005
2018-12-12T17:29:20.253Z,19.950000000000003
2018-12-12T17:32:42.391Z,19.819999999999993
2018-12-12T17:36:04.678Z,19.340000000000003
2018-12-12T17:39:26.934Z,19.269999999999996
2018-12-12T17:42:48.916Z,19.14
2018-12-12T17:46:11.163Z,18.980000000000004
2018-12-12T17:49:33.376Z,19
2018-12-12T17:52:55.511Z,18.959999999999994
2018-12-12T17:56:17.608Z,19.120000000000005
2018-12-12T17:59:39.880Z,19.019999999999996
2018-12-12T18:03:02.117Z,18.950000000000003
2018-12-12T18:06:24.219Z,18.89
2018-12-12T18:09:46.372Z,19
2018-12-12T18:13:08.561Z,18.72
2018-12-12T18:16:30.660Z,18.810000000000002
2018-12-12T18:19:52.820Z,19.439999999999998
2018-12-12T18:23:17.204Z,19.439999999999998
2018-12-12T18:26:37.277Z,19.61
2018-12-12T18:29:59.421Z,19.61
2018-12-12T18:33:21.608Z,19.5
2018-12-12T18:36:43.705Z,19.549999999999997
2018-12-12T18:40:05.932Z,19.620000000000005
2018-12-12T18:43:28.122Z,19.739999999999995
2018-12-12T18:46:50.231Z,19.739999999999995
2018-12-12T18:46:50.720Z,19.739999999999995
2018-12-12T18:50:12.482Z,19.72
2018-12-12T18:53:34.568Z,20.189999999999998
2018-12-12T18:56:56.845Z,19.939999999999998
2018-12-12T19:00:18.999Z,19.86
2018-12-12T19:03:41.236Z,19.849999999999994
2018-12-12T19:07:03.273Z,19.819999999999993
2018-12-12T19:10:25.500Z,19.89
2018-12-12T19:13:49.975Z,19.709999999999994
2018-12-12T19:17:09.853Z,19.879999999999995
2018-12-12T19:20:32.052Z,19.83
2018-12-12T19:23:54.125Z,19.879999999999995
2018-12-12T19:27:16.368Z,19.909999999999997
2018-12-12T19:30:38.555Z,19.980000000000004
2018-12-12T19:34:00.724Z,19.97
2018-12-12T19:37:22.892Z,20.060000000000002
2018-12-12T19:40:45.121Z,20.150000000000006
2018-12-12T19:44:07.175Z,20.150000000000006
2018-12-12T19:47:29.348Z,20.08
2018-12-12T19:50:51.511Z,20.060000000000002
2018-12-12T19:54:13.761Z,20.010000000000005
2018-12-12T19:57:35.938Z,20.08
2018-12-12T20:00:58.111Z,20.08
2018-12-12T20:04:20.290Z,19.97
2018-12-12T20:07:42.416Z,20.060000000000002
2018-12-12T20:11:04.636Z,20.040000000000006
2018-12-12T20:14:26.952Z,20.019999999999996
2018-12-12T20:17:48.965Z,20.010000000000005
2018-12-12T20:21:11.153Z,19.950000000000003
2018-12-12T20:24:33.373Z,19.89
2018-12-12T20:27:55.498Z,19.980000000000004
2018-12-12T20:31:17.672Z,19.97
2018-12-12T20:34:39.844Z,19.92
2018-12-12T20:38:02.006Z,19.950000000000003
2018-12-12T20:41:24.187Z,19.849999999999994
2018-12-12T20:44:46.369Z,19.819999999999993
2018-12-12T20:48:08.564Z,19.909999999999997
2018-12-12T20:51:30.660Z,19.879999999999995
2018-12-12T20:54:52.881Z,19.879999999999995
2018-12-12T20:58:15.063Z,19.879999999999995
2018-12-12T21:01:37.259Z,19.909999999999997
2018-12-12T21:04:59.342Z,19.86
2018-12-12T21:08:21.592Z,19.879999999999995
2018-12-12T21:08:22.111Z,19.879999999999995
2018-12-12T21:11:43.754Z,19.849999999999994
2018-12-12T21:15:05.851Z,19.86
2018-12-12T21:18:28.128Z,19.86
2018-12-12T21:21:50.191Z,19.83
2018-12-12T21:25:12.463Z,19.790000000000006
2018-12-12T21:28:34.623Z,19.89
2018-12-12T21:31:56.829Z,19.790000000000006
2018-12-12T21:35:20.363Z,19.849999999999994
2018-12-12T21:38:41.153Z,19.83
2018-12-12T21:42:03.248Z,19.849999999999994
2018-12-12T21:45:25.484Z,19.810000000000002
2018-12-12T21:48:47.682Z,19.819999999999993
2018-12-12T21:52:09.874Z,19.849999999999994
2018-12-12T21:55:32.034Z,19.819999999999993
2018-12-12T21:58:54.141Z,19.879999999999995
2018-12-12T22:02:16.321Z,19.849999999999994
2018-12-12T22:05:38.542Z,19.879999999999995
2018-12-12T22:09:00.687Z,19.849999999999994
2018-12-12T22:12:22.884Z,19.83
2018-12-12T22:15:44.979Z,19.86
2018-12-12T22:19:07.223Z,19.83
2018-12-12T22:22:29.404Z,19.909999999999997
2018-12-12T22:25:51.500Z,19.819999999999993
2018-12-12T22:29:13.821Z,19.810000000000002
2018-12-12T22:32:36.022Z,19.489999999999995
2018-12-12T22:35:58.026Z,19.439999999999998
2018-12-12T22:39:20.281Z,19.439999999999998
2018-12-12T22:42:42.499Z,19.510000000000005
2018-12-12T22:46:04.647Z,19.64
2018-12-12T22:49:26.842Z,19.909999999999997
2018-12-12T22:52:49.004Z,19.97
2018-12-12T22:56:11.142Z,19.980000000000004
2018-12-12T22:59:33.295Z,20.08
2018-12-12T23:02:55.422Z,20.040000000000006
2018-12-12T23:06:17.645Z,20.040000000000006
2018-12-12T23:09:39.824Z,20.049999999999997
2018-12-12T23:13:02.000Z,20.010000000000005
2018-12-12T23:16:24.125Z,19.950000000000003
2018-12-12T23:19:46.360Z,19.939999999999998
2018-12-12T23:23:08.466Z,19.97
2018-12-12T23:26:30.726Z,19.879999999999995
2018-12-12T23:29:52.799Z,19.92
2018-12-12T23:33:15.068Z,19.89
2018-12-12T23:36:37.241Z,19.879999999999995
2018-12-12T23:39:59.319Z,19.92
2018-12-12T23:43:21.584Z,19.86
2018-12-12T23:46:43.760Z,19.83
2018-12-12T23:50:05.949Z,19.78
2018-12-12T23:53:28.104Z,19.769999999999996
2018-12-12T23:56:54.007Z,19.769999999999996
